Baton Rouge, LA (70811)

5:16 PM CDT on August 31, 2015 (GMT -0500)
KLAGREEN3 | | Change Station
CLOSE
Current Station
Personal Weather Station
Location: Baton Rouge, LA
Elevation: 62 ft
Nearby Weather Stations

Elev 62 ft 30.53 °N, 91.03 °W | Updated 2 minutes ago

Clear
Clear
89.9 °F
Feels Like 87 °F
N
0.0
Wind Variable Wind from South
Gusts 0.0 mph

Today
High -- | Low -- °F
--% Chance of Precip.
Yesterday
High -- | Low -- °F
Precip. -- in
6:40 AM 7:28 PM
Waning Gibbous, 93% visible
Pressure 30.01 in
Visibility 10.0 miles
Clouds Clear
Heat Index 87 °F
Dew Point 49 °F
Humidity 25%
Rainfall 0.00 in
Snow Depth Not available.
UV 4 out of 12
Pollen 8.00 out of 12
Air Quality Not available.
Flu Activity Not available.
METAR KBTR 312153Z AUTO 26003KT 10SM CLR 31/22 A3001 RMK AO2 SLP162 T03060217
Pressure 30.01 in
Visibility 10.0 miles
Clouds Clear
Heat Index 87 °F
Dew Point 49 °F
Humidity 25%
Rainfall 0.00 in
Snow Depth Not available.
UV 4 out of 12
Pollen 8.00 out of 12
Air Quality Not available.
Flu Activity Not available.
METAR KBTR 312153Z AUTO 26003KT 10SM CLR 31/22 A3001 RMK AO2 SLP162 T03060217

10-Day Weather Forecast

×

Almanac

Astronomy

Aug. 31, 2015 Rise Set
Actual Time
Civil Twilight
Nautical Twilight
Astronomical Twilight
Moon
Length of Visible Light
Length of Day
Tomorrow will be .
, % of the Moon is Illuminated

Today's Extremes

State Highs State Lows

Community

WunderPhotos

Upload Photos

1,851,389 photos uploaded!

WunderBlogs® & News

Nearby

Air Quality

  Air Quality AQ Index Pollutant
Not available.

Snow Depth

Station Depth Elevation

Earthquake Activity

City Distance Mag. Time & Date
Minimum magnitude displayed is 2.5.

Coastal Water Temperatures

Place Temperature

Stations

Nearby Weather Stations

Station Location Temp. Windchill Dew Point Humidity Wind Precip. Elev Updated Type